createdAt,value
2023-02-14T00:02:33.889Z,4.90
2023-02-14T00:05:35.648Z,4.90
2023-02-14T00:08:37.605Z,4.90
2023-02-14T00:11:39.751Z,4.90
2023-02-14T00:14:59.868Z,4.90
2023-02-14T00:18:03.713Z,4.90
2023-02-14T00:21:05.642Z,4.80
2023-02-14T00:24:18.347Z,4.70
2023-02-14T00:27:20.077Z,4.70
2023-02-14T00:30:21.898Z,4.60
2023-02-14T00:33:23.628Z,4.50
2023-02-14T00:36:25.330Z,4.50
2023-02-14T00:39:27.985Z,4.50
2023-02-14T00:42:29.707Z,4.40
2023-02-14T00:45:31.710Z,4.40
2023-02-14T00:48:33.428Z,4.30
2023-02-14T00:51:35.154Z,4.30
2023-02-14T00:54:36.906Z,4.20
2023-02-14T00:57:38.691Z,4.20
2023-02-14T01:00:40.470Z,4.10
2023-02-14T01:03:42.155Z,4.10
2023-02-14T01:06:44.038Z,4.00
2023-02-14T01:09:45.691Z,4.00
2023-02-14T01:12:47.385Z,3.90
2023-02-14T01:15:50.706Z,3.90
2023-02-14T01:18:53.909Z,3.90
2023-02-14T01:21:55.638Z,3.90
2023-02-14T01:24:57.347Z,3.80
2023-02-14T01:27:59.458Z,3.70
2023-02-14T01:31:15.482Z,3.80
2023-02-14T01:34:17.493Z,3.70
2023-02-14T01:37:19.503Z,3.70
2023-02-14T01:40:21.434Z,3.70
2023-02-14T01:43:23.161Z,3.70
2023-02-14T01:46:26.115Z,3.60
2023-02-14T01:49:29.983Z,3.60
2023-02-14T01:52:34.818Z,3.60
2023-02-14T01:55:38.784Z,3.70
2023-02-14T01:58:45.006Z,3.70
2023-02-14T02:01:47.849Z,3.70
2023-02-14T02:04:50.192Z,3.70
2023-02-14T02:07:56.563Z,3.60
2023-02-14T02:10:58.540Z,3.60
2023-02-14T02:14:00.406Z,3.60
2023-02-14T02:17:23.648Z,3.60
2023-02-14T02:20:31.571Z,3.50
2023-02-14T02:23:58.808Z,3.50
2023-02-14T02:27:29.085Z,3.50
2023-02-14T02:30:47.141Z,3.40
2023-02-14T02:34:07.834Z,3.30
2023-02-14T02:37:28.284Z,3.30
2023-02-14T02:40:36.735Z,3.30
2023-02-14T02:43:53.726Z,3.20
2023-02-14T02:46:57.743Z,3.10
2023-02-14T02:50:24.416Z,3.10
2023-02-14T02:53:28.270Z,3.10
2023-02-14T02:56:48.651Z,3.10
2023-02-14T02:59:51.355Z,3.10
2023-02-14T03:03:13.290Z,3.10
2023-02-14T03:06:14.864Z,3.10
2023-02-14T03:09:19.640Z,3.10
2023-02-14T03:12:37.397Z,3.00
2023-02-14T03:15:48.145Z,3.00
2023-02-14T03:19:17.548Z,2.90
2023-02-14T03:22:43.073Z,2.90
2023-02-14T03:25:53.844Z,2.80
2023-02-14T03:29:12.803Z,2.80
2023-02-14T03:32:28.540Z,2.80
2023-02-14T03:35:36.835Z,2.70
2023-02-14T03:39:10.490Z,2.70
2023-02-14T03:42:26.909Z,2.50
2023-02-14T03:45:51.528Z,2.50
2023-02-14T03:48:53.700Z,2.50
2023-02-14T03:51:56.098Z,2.50
2023-02-14T03:54:58.153Z,2.40
2023-02-14T03:58:21.463Z,2.40
2023-02-14T04:01:35.115Z,2.30
2023-02-14T04:04:42.579Z,2.30
2023-02-14T04:07:49.214Z,2.30
2023-02-14T04:10:51.669Z,2.30
2023-02-14T04:13:53.317Z,2.30
2023-02-14T04:17:13.674Z,2.30
2023-02-14T04:20:15.327Z,2.40
2023-02-14T04:23:16.983Z,2.40
2023-02-14T04:26:18.676Z,2.40
2023-02-14T04:29:21.665Z,2.40
2023-02-14T04:32:23.574Z,2.40
2023-02-14T04:35:25.280Z,2.40
2023-02-14T04:38:26.980Z,2.40
2023-02-14T04:41:28.618Z,2.40
2023-02-14T04:44:30.323Z,2.40
2023-02-14T04:47:31.978Z,2.40
2023-02-14T04:50:33.695Z,2.40
2023-02-14T04:53:40.150Z,2.40
2023-02-14T04:56:41.825Z,2.40
2023-02-14T04:59:43.517Z,2.30
2023-02-14T05:02:45.276Z,2.30
2023-02-14T05:05:49.552Z,2.30
2023-02-14T05:08:51.209Z,2.30
2023-02-14T05:11:52.886Z,2.30
2023-02-14T05:14:56.014Z,2.30
2023-02-14T05:18:01.632Z,2.30
2023-02-14T05:21:03.424Z,2.20
2023-02-14T05:24:05.148Z,2.20
2023-02-14T05:27:07.586Z,2.10
2023-02-14T05:30:10.047Z,2.10
2023-02-14T05:33:11.920Z,2.00
2023-02-14T05:36:13.626Z,2.00
2023-02-14T05:39:15.333Z,1.90
2023-02-14T05:42:16.976Z,1.90
2023-02-14T05:45:18.760Z,1.80
2023-02-14T05:48:20.420Z,1.80
2023-02-14T05:51:22.084Z,1.70
2023-02-14T05:54:23.816Z,1.70
2023-02-14T05:57:25.735Z,1.60
2023-02-14T06:00:27.969Z,1.60
2023-02-14T06:03:29.642Z,1.60
2023-02-14T06:06:31.319Z,1.50
2023-02-14T06:09:32.956Z,1.40
2023-02-14T06:12:34.586Z,1.40
2023-02-14T06:15:36.809Z,1.40
2023-02-14T06:18:39.018Z,1.40
2023-02-14T06:21:40.682Z,1.30
2023-02-14T06:24:42.328Z,1.20
2023-02-14T06:27:44.083Z,1.20
2023-02-14T06:30:47.082Z,1.20
2023-02-14T06:33:48.800Z,1.20
2023-02-14T06:36:50.462Z,1.20
2023-02-14T06:39:52.223Z,1.20
2023-02-14T06:42:53.852Z,1.20
2023-02-14T06:45:55.555Z,1.20
2023-02-14T06:48:57.289Z,1.20
2023-02-14T06:51:58.919Z,1.20
2023-02-14T06:55:00.614Z,1.20
2023-02-14T06:58:02.315Z,1.20
2023-02-14T07:01:04.133Z,1.20
2023-02-14T07:04:05.822Z,1.10
2023-02-14T07:07:07.573Z,1.10
2023-02-14T07:10:09.454Z,1.10
2023-02-14T07:13:11.097Z,1.20
2023-02-14T07:16:12.827Z,1.10
2023-02-14T07:19:14.497Z,1.10
2023-02-14T07:22:16.224Z,1.10
2023-02-14T07:25:18.007Z,1.10
2023-02-14T07:28:19.728Z,1.10
2023-02-14T07:31:23.372Z,1.10
2023-02-14T07:34:27.157Z,1.10
2023-02-14T07:37:28.847Z,1.20
2023-02-14T07:40:30.539Z,1.20
2023-02-14T07:43:34.363Z,1.20
2023-02-14T07:46:36.235Z,1.40
2023-02-14T07:49:38.038Z,1.40
2023-02-14T07:52:39.726Z,1.40
2023-02-14T07:55:41.374Z,1.40
2023-02-14T07:58:43.081Z,1.40
2023-02-14T08:01:44.874Z,1.50
2023-02-14T08:04:46.704Z,1.60
2023-02-14T08:07:48.508Z,1.70
2023-02-14T08:10:50.156Z,1.70
2023-02-14T08:13:51.794Z,1.80
2023-02-14T08:16:53.457Z,1.80
2023-02-14T08:19:55.132Z,1.90
2023-02-14T08:22:56.889Z,2.00
2023-02-14T08:25:58.562Z,2.10
2023-02-14T08:29:01.573Z,2.20
2023-02-14T08:32:03.368Z,2.30
2023-02-14T08:35:05.258Z,2.40
2023-02-14T08:38:08.159Z,2.50
2023-02-14T08:41:09.902Z,2.70
2023-02-14T08:44:11.629Z,2.90
2023-02-14T08:47:13.352Z,3.00
2023-02-14T08:50:19.015Z,3.10
2023-02-14T08:53:22.082Z,3.30
2023-02-14T08:56:24.873Z,3.40
2023-02-14T08:59:27.600Z,3.50
2023-02-14T09:02:29.310Z,3.60
2023-02-14T09:05:31.043Z,3.70
2023-02-14T09:08:35.021Z,3.80
2023-02-14T09:11:36.747Z,3.90
2023-02-14T09:14:45.189Z,4.00
2023-02-14T09:17:47.206Z,4.10
2023-02-14T09:20:48.923Z,4.20
2023-02-14T09:23:50.835Z,4.40
2023-02-14T09:26:52.538Z,4.50
2023-02-14T09:29:54.305Z,4.70
2023-02-14T09:32:56.088Z,4.80
2023-02-14T09:36:16.622Z,4.90
2023-02-14T09:39:18.311Z,5.00
2023-02-14T09:42:46.022Z,5.20
2023-02-14T09:45:50.362Z,5.40
2023-02-14T09:48:52.066Z,5.50
2023-02-14T09:51:53.730Z,5.70
2023-02-14T09:54:58.090Z,5.80
2023-02-14T09:58:44.764Z,5.90
2023-02-14T10:02:08.585Z,6.00
2023-02-14T10:05:14.754Z,6.20
2023-02-14T10:08:41.052Z,6.40
2023-02-14T10:11:44.159Z,6.60
2023-02-14T10:14:45.824Z,6.80
2023-02-14T10:17:59.987Z,7.00
2023-02-14T10:21:02.500Z,7.10
2023-02-14T10:24:10.281Z,7.20
2023-02-14T10:27:33.027Z,7.40
2023-02-14T10:30:39.765Z,7.50
2023-02-14T10:33:42.684Z,7.60
2023-02-14T10:37:01.005Z,7.80
2023-02-14T10:40:21.375Z,7.90
2023-02-14T10:43:44.508Z,8.00
2023-02-14T10:46:48.956Z,8.20
2023-02-14T10:50:05.543Z,8.40
2023-02-14T10:53:15.810Z,8.50
2023-02-14T10:56:31.563Z,8.60
2023-02-14T11:00:06.842Z,8.80
2023-02-14T11:03:09.513Z,9.00
2023-02-14T11:06:11.509Z,9.00
2023-02-14T11:09:13.208Z,9.10
2023-02-14T11:12:40.741Z,9.20
2023-02-14T11:15:42.399Z,9.20
2023-02-14T11:18:46.079Z,9.40
2023-02-14T11:21:48.531Z,9.40
2023-02-14T11:24:50.384Z,9.50
2023-02-14T11:28:02.978Z,9.60
2023-02-14T11:31:05.055Z,9.70
2023-02-14T11:34:36.688Z,9.70
2023-02-14T11:37:49.297Z,9.80
2023-02-14T11:40:55.071Z,10.00
2023-02-14T11:44:14.078Z,10.00
2023-02-14T11:47:29.557Z,10.10
2023-02-14T11:50:31.296Z,10.10
2023-02-14T11:53:50.048Z,10.20
2023-02-14T11:56:56.448Z,10.30
2023-02-14T11:59:59.773Z,10.50
2023-02-14T12:03:02.007Z,10.50
2023-02-14T12:06:03.908Z,10.60
2023-02-14T12:09:24.323Z,10.70
2023-02-14T12:12:26.101Z,10.80
2023-02-14T12:15:40.275Z,10.90
2023-02-14T12:18:56.297Z,11.10
2023-02-14T12:22:03.224Z,11.10
2023-02-14T12:25:13.830Z,11.20
2023-02-14T12:28:19.235Z,11.30
2023-02-14T12:31:20.999Z,11.40
2023-02-14T12:34:22.760Z,11.50
2023-02-14T12:38:02.667Z,11.50
2023-02-14T12:41:35.080Z,11.60
2023-02-14T12:44:42.489Z,11.70
2023-02-14T12:48:12.348Z,11.80
2023-02-14T12:51:38.970Z,11.90
2023-02-14T12:54:47.635Z,11.90
2023-02-14T12:57:55.770Z,12.00
2023-02-14T13:01:04.096Z,12.10
2023-02-14T13:04:14.279Z,12.20
2023-02-14T13:07:39.047Z,12.30
2023-02-14T13:10:43.452Z,12.40
2023-02-14T13:13:45.124Z,12.50
2023-02-14T13:16:51.730Z,12.50
2023-02-14T13:20:28.535Z,12.50
2023-02-14T13:23:41.511Z,12.50
2023-02-14T13:26:45.160Z,12.60
2023-02-14T13:29:56.220Z,12.70
2023-02-14T13:33:00.767Z,12.80
2023-02-14T13:36:07.954Z,12.90
2023-02-14T13:39:11.094Z,12.80
2023-02-14T13:42:12.814Z,12.80
2023-02-14T13:45:29.641Z,12.80
2023-02-14T13:48:31.711Z,12.80
2023-02-14T13:51:53.582Z,12.90
2023-02-14T13:54:55.269Z,12.90
2023-02-14T13:58:07.515Z,13.00
2023-02-14T14:01:27.860Z,13.00
2023-02-14T14:04:30.248Z,13.00
2023-02-14T14:07:32.147Z,13.00
2023-02-14T14:10:44.895Z,13.00
2023-02-14T14:14:30.003Z,13.00
2023-02-14T14:17:44.463Z,13.10
2023-02-14T14:20:47.991Z,13.10
2023-02-14T14:24:14.629Z,13.20
2023-02-14T14:27:20.173Z,13.30
2023-02-14T14:30:25.763Z,13.40
2023-02-14T14:33:32.313Z,13.40
2023-02-14T14:36:33.962Z,13.40
2023-02-14T14:39:36.176Z,13.50
2023-02-14T14:42:39.990Z,13.40
2023-02-14T14:45:41.932Z,13.40
2023-02-14T14:48:51.393Z,13.50
2023-02-14T14:51:53.107Z,13.50
2023-02-14T14:54:54.803Z,13.70
2023-02-14T14:57:59.733Z,13.90
2023-02-14T15:01:01.543Z,14.20
2023-02-14T15:04:17.050Z,14.60
2023-02-14T15:07:20.999Z,15.00
2023-02-14T15:10:27.919Z,15.20
2023-02-14T15:13:53.440Z,15.50
2023-02-14T15:17:02.179Z,15.80
2023-02-14T15:20:07.188Z,16.10
2023-02-14T15:23:16.741Z,16.40
2023-02-14T15:26:24.228Z,16.70
2023-02-14T15:29:31.523Z,17.00
2023-02-14T15:32:34.562Z,17.20
2023-02-14T15:35:38.857Z,17.40
2023-02-14T15:38:40.919Z,17.20
2023-02-14T15:41:44.243Z,16.90
2023-02-14T15:44:45.977Z,16.60
2023-02-14T15:47:49.251Z,16.40
2023-02-14T15:50:52.731Z,16.30
2023-02-14T15:54:01.900Z,16.30
2023-02-14T15:57:03.949Z,16.40
2023-02-14T16:00:12.531Z,16.30
2023-02-14T16:03:25.434Z,16.40
2023-02-14T16:06:43.585Z,16.50
2023-02-14T16:09:45.288Z,16.70
2023-02-14T16:13:04.117Z,16.70
2023-02-14T16:16:07.260Z,16.70
2023-02-14T16:19:30.127Z,16.50
2023-02-14T16:22:31.993Z,16.20
2023-02-14T16:25:35.888Z,15.60
2023-02-14T16:28:37.689Z,15.00
2023-02-14T16:31:51.924Z,14.50
2023-02-14T16:35:02.772Z,14.00
2023-02-14T16:38:04.490Z,13.30
2023-02-14T16:41:07.131Z,12.90
2023-02-14T16:44:14.817Z,12.50
2023-02-14T16:47:17.560Z,12.10
2023-02-14T16:50:20.277Z,11.70
2023-02-14T16:53:26.323Z,11.50
2023-02-14T16:56:39.666Z,11.10
2023-02-14T16:59:41.304Z,10.90
2023-02-14T17:02:44.255Z,10.60
2023-02-14T17:05:46.124Z,10.30
2023-02-14T17:08:48.192Z,10.10
2023-02-14T17:11:50.600Z,9.80
2023-02-14T17:14:53.929Z,9.60
2023-02-14T17:17:57.190Z,9.40
2023-02-14T17:20:59.497Z,9.20
2023-02-14T17:24:02.296Z,9.00
2023-02-14T17:27:04.031Z,8.80
2023-02-14T17:30:06.338Z,8.60
2023-02-14T17:33:08.180Z,8.40
2023-02-14T17:36:12.065Z,8.30
2023-02-14T17:39:14.841Z,8.10
2023-02-14T17:42:16.517Z,8.00
2023-02-14T17:45:18.245Z,7.90
2023-02-14T17:48:19.892Z,7.80
2023-02-14T17:51:21.616Z,7.70
2023-02-14T17:54:23.909Z,7.50
2023-02-14T17:57:25.558Z,7.50
2023-02-14T18:00:27.324Z,7.40
2023-02-14T18:03:28.995Z,7.20
2023-02-14T18:06:31.765Z,7.20
2023-02-14T18:09:33.470Z,7.00
2023-02-14T18:12:35.122Z,7.00
2023-02-14T18:15:39.516Z,6.90
2023-02-14T18:18:41.623Z,6.80
2023-02-14T18:21:44.367Z,6.70
2023-02-14T18:24:46.057Z,6.70
2023-02-14T18:27:48.721Z,6.60
2023-02-14T18:30:50.410Z,6.50
2023-02-14T18:33:52.273Z,6.40
2023-02-14T18:36:54.893Z,6.40
2023-02-14T18:39:56.624Z,6.30
2023-02-14T18:42:58.249Z,6.20
2023-02-14T18:46:10.088Z,6.10
2023-02-14T18:49:13.236Z,6.00
2023-02-14T18:52:14.911Z,6.00
2023-02-14T18:55:16.723Z,5.90
2023-02-14T18:58:19.457Z,5.90
2023-02-14T19:01:23.685Z,5.80
2023-02-14T19:04:25.400Z,5.80
2023-02-14T19:07:27.024Z,5.70
2023-02-14T19:10:28.655Z,5.70
2023-02-14T19:13:32.143Z,5.60
2023-02-14T19:16:33.908Z,5.60
2023-02-14T19:19:35.999Z,5.60
2023-02-14T19:22:41.183Z,5.50
2023-02-14T19:25:42.999Z,5.50
2023-02-14T19:28:45.062Z,5.50
2023-02-14T19:31:51.439Z,5.50
2023-02-14T19:34:53.200Z,5.50
2023-02-14T19:37:55.916Z,5.40
2023-02-14T19:41:01.464Z,5.40
2023-02-14T19:44:04.781Z,5.30
2023-02-14T19:47:23.328Z,5.30
2023-02-14T19:50:28.464Z,5.30
2023-02-14T19:53:30.612Z,5.40
2023-02-14T19:56:33.933Z,5.30
2023-02-14T19:59:35.588Z,5.30
2023-02-14T20:02:37.296Z,5.30
2023-02-14T20:05:39.308Z,5.30
2023-02-14T20:08:40.978Z,5.30
2023-02-14T20:11:50.126Z,5.30
2023-02-14T20:14:54.047Z,5.20
2023-02-14T20:17:59.216Z,5.10
2023-02-14T20:21:03.699Z,5.10
2023-02-14T20:24:06.080Z,5.00
2023-02-14T20:27:08.110Z,5.00
2023-02-14T20:30:10.297Z,4.90
2023-02-14T20:33:11.975Z,4.90
2023-02-14T20:36:13.766Z,4.80
2023-02-14T20:39:15.439Z,4.70
2023-02-14T20:42:17.235Z,4.70
2023-02-14T20:45:18.878Z,4.50
2023-02-14T20:48:20.534Z,4.50
2023-02-14T20:51:22.300Z,4.50
2023-02-14T20:54:24.920Z,4.30
2023-02-14T20:57:26.620Z,4.30
2023-02-14T21:00:34.128Z,4.20
2023-02-14T21:03:37.139Z,4.10
2023-02-14T21:06:41.172Z,4.10
2023-02-14T21:09:43.061Z,4.00
2023-02-14T21:12:44.718Z,3.90
2023-02-14T21:15:46.390Z,3.90
2023-02-14T21:18:52.293Z,3.80
2023-02-14T21:21:57.096Z,3.80
2023-02-14T21:24:58.784Z,3.70
2023-02-14T21:28:00.618Z,3.60
2023-02-14T21:31:10.143Z,3.50
2023-02-14T21:34:12.115Z,3.50
2023-02-14T21:37:14.084Z,3.50
2023-02-14T21:40:15.918Z,3.40
2023-02-14T21:43:17.572Z,3.30
2023-02-14T21:46:20.716Z,3.30
2023-02-14T21:49:40.920Z,3.10
2023-02-14T21:52:42.577Z,3.10
2023-02-14T21:55:45.972Z,3.10
2023-02-14T21:58:48.513Z,3.00
2023-02-14T22:01:50.221Z,3.00
2023-02-14T22:04:55.264Z,3.00
2023-02-14T22:07:56.891Z,3.00
2023-02-14T22:10:58.929Z,3.00
2023-02-14T22:14:00.709Z,3.00
2023-02-14T22:17:02.387Z,2.90
2023-02-14T22:20:06.018Z,2.80
2023-02-14T22:23:07.825Z,2.80
2023-02-14T22:26:13.571Z,2.70
2023-02-14T22:29:15.307Z,2.70
2023-02-14T22:32:16.993Z,2.60
2023-02-14T22:35:18.684Z,2.60
2023-02-14T22:38:21.373Z,2.50
2023-02-14T22:41:24.014Z,2.50
2023-02-14T22:44:25.693Z,2.50
2023-02-14T22:47:27.348Z,2.50
2023-02-14T22:50:29.047Z,2.50
2023-02-14T22:53:30.781Z,2.40
2023-02-14T22:56:34.413Z,2.40
2023-02-14T22:59:35.989Z,2.30
2023-02-14T23:02:38.584Z,2.30
2023-02-14T23:05:40.226Z,2.30
2023-02-14T23:08:45.662Z,2.20
2023-02-14T23:11:47.686Z,2.20
2023-02-14T23:15:08.017Z,2.20
2023-02-14T23:18:30.812Z,2.20
2023-02-14T23:21:50.901Z,2.20
2023-02-14T23:24:53.917Z,2.40
2023-02-14T23:27:55.570Z,2.50
2023-02-14T23:31:01.218Z,2.60
2023-02-14T23:34:02.987Z,2.80
2023-02-14T23:37:04.848Z,2.90
2023-02-14T23:40:07.217Z,3.00
2023-02-14T23:43:08.922Z,3.10
2023-02-14T23:46:10.819Z,3.20
2023-02-14T23:49:12.467Z,3.30
2023-02-14T23:52:14.187Z,3.30
2023-02-14T23:55:15.900Z,3.30
2023-02-14T23:58:17.559Z,3.30
